createdAt,value
2017-09-01T00:00:25.543Z,10.53
2017-09-01T00:02:53.156Z,7.10
2017-09-01T00:05:20.773Z,8.80
2017-09-01T00:07:48.384Z,7.80
2017-09-01T00:10:15.978Z,8.10
2017-09-01T00:12:43.635Z,7.10
2017-09-01T00:15:11.214Z,8.30
2017-09-01T00:17:38.842Z,7.47
2017-09-01T00:20:06.452Z,7.60
2017-09-01T00:22:34.099Z,8.13
2017-09-01T00:25:01.710Z,7.30
2017-09-01T00:27:29.319Z,7.87
2017-09-01T00:29:56.996Z,7.53
2017-09-01T00:32:24.631Z,7.50
2017-09-01T00:34:52.245Z,9.10
2017-09-01T00:37:19.908Z,7.37
2017-09-01T00:39:47.490Z,7.43
2017-09-01T00:42:15.087Z,8.60
2017-09-01T00:44:42.719Z,7.80
2017-09-01T00:47:10.318Z,7.13
2017-09-01T00:49:38.034Z,8.30
2017-09-01T00:52:05.654Z,8.57
2017-09-01T00:54:33.266Z,8.10
2017-09-01T00:57:00.861Z,8.77
2017-09-01T00:59:28.483Z,8.67
2017-09-01T01:01:56.092Z,7.90
2017-09-01T01:04:23.752Z,7.93
2017-09-01T01:06:51.371Z,7.30
2017-09-01T01:09:19.026Z,8.23
2017-09-01T01:11:46.615Z,8.23
2017-09-01T01:14:14.230Z,7.23
2017-09-01T01:16:41.830Z,6.53
2017-09-01T01:19:09.494Z,8.50
2017-09-01T01:21:37.086Z,7.83
2017-09-01T01:24:04.731Z,7.77
2017-09-01T01:26:32.293Z,8.63
2017-09-01T01:28:59.927Z,8.50
2017-09-01T01:31:27.515Z,7.80
2017-09-01T01:33:55.154Z,7.83
2017-09-01T01:36:22.732Z,7.47
2017-09-01T01:38:50.358Z,8.60
2017-09-01T01:41:17.982Z,9.30
2017-09-01T01:43:45.578Z,7.60
2017-09-01T01:46:13.243Z,8.63
2017-09-01T01:48:40.845Z,9.77
2017-09-01T01:51:08.486Z,8.53
2017-09-01T01:53:36.087Z,9.23
2017-09-01T01:56:03.707Z,10.13
2017-09-01T01:58:31.338Z,9.63
2017-09-01T02:00:58.958Z,10.67
2017-09-01T02:03:26.574Z,10.67
2017-09-01T02:05:54.220Z,10.13
2017-09-01T02:08:21.826Z,8.93
2017-09-01T02:10:49.463Z,11.57
2017-09-01T02:13:17.071Z,10.60
2017-09-01T02:15:44.679Z,8.93
2017-09-01T02:18:12.302Z,9.10
2017-09-01T02:20:39.967Z,8.00
2017-09-01T02:23:07.571Z,9.30
2017-09-01T02:25:35.244Z,8.53
2017-09-01T02:28:02.852Z,8.90
2017-09-01T02:30:30.451Z,8.70
2017-09-01T02:32:58.046Z,9.87
2017-09-01T02:35:25.686Z,8.60
2017-09-01T02:37:53.294Z,9.33
2017-09-01T02:40:20.917Z,10.40
2017-09-01T02:42:48.598Z,10.77
2017-09-01T02:45:16.175Z,9.00
2017-09-01T02:47:43.799Z,8.40
2017-09-01T02:50:11.382Z,9.57
2017-09-01T02:52:39.134Z,9.47
2017-09-01T02:55:06.749Z,8.27
2017-09-01T02:57:34.384Z,7.40
2017-09-01T03:00:02.036Z,9.53
2017-09-01T03:02:29.661Z,9.40
2017-09-01T03:04:57.255Z,9.00
2017-09-01T03:07:24.879Z,9.80
2017-09-01T03:09:52.475Z,11.07
2017-09-01T03:12:20.090Z,10.63
2017-09-01T03:14:47.694Z,8.53
2017-09-01T03:17:15.310Z,9.93
2017-09-01T03:19:42.898Z,9.93
2017-09-01T03:22:10.534Z,10.57
2017-09-01T03:24:38.122Z,9.70
2017-09-01T03:27:05.859Z,9.30
2017-09-01T03:29:33.458Z,9.40
2017-09-01T03:32:01.081Z,9.30
2017-09-01T03:34:28.667Z,9.70
2017-09-01T03:36:56.294Z,8.57
2017-09-01T03:39:23.900Z,10.07
2017-09-01T03:41:51.590Z,9.73
2017-09-01T03:44:19.226Z,10.57
2017-09-01T03:46:46.819Z,9.23
2017-09-01T03:49:14.454Z,9.80
2017-09-01T03:51:42.054Z,9.57
2017-09-01T03:54:09.727Z,9.53
2017-09-01T03:56:37.335Z,10.50
2017-09-01T03:59:04.958Z,10.80
2017-09-01T04:01:32.632Z,10.37
2017-09-01T04:04:00.267Z,8.90
2017-09-01T04:06:27.874Z,10.03
2017-09-01T04:08:55.515Z,11.00
2017-09-01T04:11:23.122Z,9.30
2017-09-01T04:13:50.747Z,9.70
2017-09-01T04:16:18.362Z,8.70
2017-09-01T04:18:45.954Z,35.63
2017-09-01T04:21:13.626Z,17.27
2017-09-01T04:23:41.298Z,15.50
2017-09-01T04:26:08.895Z,11.30
2017-09-01T04:28:36.553Z,9.40
2017-09-01T04:31:04.140Z,10.80
2017-09-01T04:33:31.809Z,9.30
2017-09-01T04:35:59.406Z,10.47
2017-09-01T04:38:27.099Z,10.10
2017-09-01T04:40:54.726Z,33.70
2017-09-01T04:43:22.335Z,27.20
2017-09-01T04:45:49.974Z,11.47
2017-09-01T04:48:17.679Z,9.47
2017-09-01T04:50:46.638Z,33.57
2017-09-01T04:53:14.418Z,12.50
2017-09-01T04:55:42.058Z,36.07
2017-09-01T04:58:09.673Z,12.13
2017-09-01T05:00:37.362Z,10.87
2017-09-01T05:03:04.967Z,10.10
2017-09-01T05:05:32.602Z,10.37
2017-09-01T05:08:00.262Z,10.40
2017-09-01T05:10:27.898Z,10.87
2017-09-01T05:12:55.527Z,10.47
2017-09-01T05:15:23.154Z,9.67
2017-09-01T05:17:50.759Z,10.40
2017-09-01T05:20:18.394Z,9.67
2017-09-01T05:22:45.997Z,9.53
2017-09-01T05:25:13.638Z,9.90
2017-09-01T05:27:41.232Z,9.87
2017-09-01T05:30:08.851Z,11.10
2017-09-01T05:32:36.474Z,9.70
2017-09-01T05:35:04.067Z,10.80
2017-09-01T05:37:31.686Z,14.40
2017-09-01T05:39:59.323Z,11.67
2017-09-01T05:42:26.931Z,13.50
2017-09-01T05:44:54.579Z,10.20
2017-09-01T05:47:22.174Z,9.83
2017-09-01T05:49:49.806Z,10.97
2017-09-01T05:52:17.418Z,10.00
2017-09-01T05:54:45.062Z,9.40
2017-09-01T05:57:12.671Z,9.20
2017-09-01T05:59:40.284Z,9.00
2017-09-01T06:02:07.887Z,9.37
2017-09-01T06:04:35.523Z,10.03
2017-09-01T06:07:03.115Z,9.77
2017-09-01T06:09:30.767Z,9.90
2017-09-01T06:11:58.364Z,10.40
2017-09-01T06:14:25.979Z,9.90
2017-09-01T06:16:53.646Z,10.17
2017-09-01T06:19:21.298Z,8.93
2017-09-01T06:21:48.910Z,11.00
2017-09-01T06:24:16.513Z,10.27
2017-09-01T06:26:44.134Z,9.37
2017-09-01T06:29:11.766Z,10.43
2017-09-01T06:31:39.398Z,11.20
2017-09-01T06:34:07.067Z,9.77
2017-09-01T06:36:34.724Z,9.70
2017-09-01T06:39:02.343Z,10.00
2017-09-01T06:41:29.988Z,10.00
2017-09-01T06:43:57.619Z,10.73
2017-09-01T06:46:25.294Z,10.80
2017-09-01T06:48:52.917Z,11.00
2017-09-01T06:51:20.560Z,10.33
2017-09-01T06:53:48.199Z,9.47
2017-09-01T06:56:15.863Z,12.80
2017-09-01T06:58:43.476Z,10.93
2017-09-01T07:01:11.244Z,11.33
2017-09-01T07:03:38.872Z,10.60
2017-09-01T07:06:06.600Z,11.40
2017-09-01T07:08:34.240Z,12.53
2017-09-01T07:11:01.911Z,12.07
2017-09-01T07:13:29.604Z,11.10
2017-09-01T07:15:57.647Z,12.47
2017-09-01T07:18:25.347Z,12.63
2017-09-01T07:20:53.071Z,11.60
2017-09-01T07:23:20.800Z,12.23
2017-09-01T07:25:48.479Z,11.73
2017-09-01T07:28:16.144Z,10.20
2017-09-01T07:30:43.779Z,11.60
2017-09-01T07:33:11.451Z,10.80
2017-09-01T07:35:39.093Z,10.07
2017-09-01T07:38:07.125Z,10.20
2017-09-01T07:40:34.755Z,9.40
2017-09-01T07:43:02.448Z,10.47
2017-09-01T07:45:30.077Z,10.63
2017-09-01T07:47:57.824Z,10.00
2017-09-01T07:50:25.456Z,9.83
2017-09-01T07:52:53.189Z,11.07
2017-09-01T07:55:20.853Z,10.63
2017-09-01T07:57:48.608Z,10.83
2017-09-01T08:00:16.289Z,10.40
2017-09-01T08:02:44.139Z,10.10
2017-09-01T08:05:11.872Z,9.43
2017-09-01T08:07:39.579Z,10.67
2017-09-01T08:10:07.215Z,11.50
2017-09-01T08:12:35.622Z,9.37
2017-09-01T08:15:03.333Z,9.10
2017-09-01T08:17:31.063Z,10.43
2017-09-01T08:19:58.712Z,9.57
2017-09-01T08:22:26.359Z,10.00
2017-09-01T08:24:54.036Z,9.47
2017-09-01T08:27:21.671Z,9.47
2017-09-01T08:29:49.307Z,9.07
2017-09-01T08:32:16.898Z,8.80
2017-09-01T08:34:44.638Z,8.07
2017-09-01T08:37:12.240Z,9.53
2017-09-01T08:39:39.914Z,9.13
2017-09-01T08:42:07.587Z,10.40
2017-09-01T08:44:35.203Z,9.50
2017-09-01T08:47:02.843Z,9.83
2017-09-01T08:49:30.448Z,11.73
2017-09-01T08:51:58.093Z,9.47
2017-09-01T08:54:25.815Z,9.90
2017-09-01T08:56:53.464Z,9.53
2017-09-01T08:59:21.071Z,11.73
2017-09-01T09:01:48.707Z,10.30
2017-09-01T09:04:16.337Z,11.17
2017-09-01T09:06:44.330Z,10.07
2017-09-01T09:09:11.938Z,12.13
2017-09-01T09:11:39.550Z,11.97
2017-09-01T09:14:08.958Z,11.27
2017-09-01T09:16:36.559Z,10.40
2017-09-01T09:19:04.207Z,11.23
2017-09-01T09:21:31.808Z,10.40
2017-09-01T09:23:59.446Z,11.87
2017-09-01T09:26:27.065Z,10.63
2017-09-01T09:28:54.713Z,10.90
2017-09-01T09:31:22.331Z,12.27
2017-09-01T09:33:49.995Z,12.20
2017-09-01T09:36:17.596Z,12.03
2017-09-01T09:38:45.337Z,11.90
2017-09-01T09:41:12.976Z,11.47
2017-09-01T09:43:40.586Z,12.23
2017-09-01T09:46:08.240Z,11.63
2017-09-01T09:48:35.883Z,10.17
2017-09-01T09:51:03.522Z,11.43
2017-09-01T09:53:31.134Z,13.13
2017-09-01T09:55:58.814Z,11.73
2017-09-01T09:58:26.431Z,13.27
2017-09-01T10:00:54.070Z,10.83
2017-09-01T10:03:21.682Z,10.77
2017-09-01T10:05:49.322Z,10.70
2017-09-01T10:08:16.911Z,8.80
2017-09-01T10:10:44.570Z,10.03
2017-09-01T10:13:12.204Z,8.27
2017-09-01T10:15:40.233Z,9.43
2017-09-01T10:18:07.835Z,10.90
2017-09-01T10:20:35.455Z,9.17
2017-09-01T10:23:03.087Z,7.90
2017-09-01T10:25:30.671Z,7.67
2017-09-01T10:27:58.394Z,7.17
2017-09-01T10:30:25.981Z,9.43
2017-09-01T10:32:53.727Z,7.10
2017-09-01T10:35:21.336Z,7.57
2017-09-01T10:37:48.991Z,7.90
2017-09-01T10:40:16.590Z,6.97
2017-09-01T10:42:44.323Z,7.90
2017-09-01T10:45:11.931Z,8.60
2017-09-01T10:47:51.071Z,9.53
2017-09-01T10:50:30.325Z,8.50
2017-09-01T10:53:09.911Z,7.70
2017-09-01T10:55:49.136Z,7.50
2017-09-01T10:58:21.666Z,11.43
2017-09-01T11:00:49.281Z,9.83
2017-09-01T11:03:16.885Z,12.60
2017-09-01T11:05:44.551Z,13.20
2017-09-01T11:08:12.176Z,11.17
2017-09-01T11:10:39.834Z,10.27
2017-09-01T11:13:07.443Z,12.03
2017-09-01T11:15:35.084Z,13.30
2017-09-01T11:18:02.716Z,10.77
2017-09-01T11:20:35.758Z,9.60
2017-09-01T11:23:09.054Z,9.30
2017-09-01T11:25:36.753Z,9.33
2017-09-01T11:28:04.374Z,8.70
2017-09-01T11:30:31.990Z,8.57
2017-09-01T11:32:59.628Z,9.60
2017-09-01T11:35:27.211Z,8.90
2017-09-01T11:37:54.886Z,6.80
2017-09-01T11:40:22.563Z,7.30
2017-09-01T11:42:50.182Z,7.53
2017-09-01T11:45:17.891Z,7.10
2017-09-01T11:47:45.523Z,4.07
2017-09-01T11:50:13.104Z,4.90
2017-09-01T11:52:40.749Z,5.57
2017-09-01T11:55:08.355Z,5.67
2017-09-01T11:57:35.970Z,5.93
2017-09-01T12:00:03.588Z,6.50
2017-09-01T12:02:31.210Z,5.37
2017-09-01T12:04:58.799Z,5.70
2017-09-01T12:07:26.435Z,4.73
2017-09-01T12:09:54.048Z,5.60
2017-09-01T12:12:21.803Z,7.17
2017-09-01T12:14:49.419Z,12.07
2017-09-01T12:17:17.066Z,6.47
2017-09-01T12:19:44.691Z,6.87
2017-09-01T12:22:12.371Z,6.77
2017-09-01T12:24:39.999Z,5.77
2017-09-01T12:27:07.607Z,6.80
2017-09-01T12:29:35.245Z,7.70
2017-09-01T12:32:02.870Z,14.50
2017-09-01T12:34:30.575Z,9.17
2017-09-01T12:36:58.188Z,6.20
2017-09-01T12:39:25.918Z,5.57
2017-09-01T12:41:53.507Z,5.07
2017-09-01T12:44:21.100Z,3.53
2017-09-01T12:46:48.743Z,2.97
2017-09-01T12:49:16.343Z,3.13
2017-09-01T12:51:43.986Z,2.90
2017-09-01T12:54:11.545Z,3.13
2017-09-01T12:56:39.166Z,3.07
2017-09-01T12:59:06.761Z,7.73
2017-09-01T13:01:34.395Z,3.47
2017-09-01T13:04:01.994Z,3.70
2017-09-01T13:06:29.622Z,2.60
2017-09-01T13:08:57.207Z,2.70
2017-09-01T13:11:24.841Z,3.50
2017-09-01T13:13:52.440Z,4.60
2017-09-01T13:16:20.066Z,3.00
2017-09-01T13:18:47.805Z,2.77
2017-09-01T13:21:15.404Z,2.90
2017-09-01T13:23:43.027Z,2.50
2017-09-01T13:26:10.653Z,2.90
2017-09-01T13:28:38.302Z,2.90
2017-09-01T13:31:05.890Z,3.50
2017-09-01T13:33:33.675Z,2.90
2017-09-01T13:36:01.303Z,3.83
2017-09-01T13:38:28.896Z,3.10
2017-09-01T13:40:56.546Z,3.00
2017-09-01T13:43:24.139Z,3.40
2017-09-01T13:45:51.882Z,3.60
2017-09-01T13:48:19.490Z,2.97
2017-09-01T13:50:47.082Z,3.37
2017-09-01T13:53:14.718Z,3.20
2017-09-01T13:55:42.327Z,3.30
2017-09-01T13:58:09.996Z,2.53
2017-09-01T14:00:37.623Z,2.77
2017-09-01T14:03:05.257Z,2.43
2017-09-01T14:05:32.850Z,2.60
2017-09-01T14:08:00.483Z,2.37
2017-09-01T14:10:28.083Z,2.40
2017-09-01T14:12:55.836Z,2.83
2017-09-01T14:15:23.424Z,1.60
2017-09-01T14:17:51.098Z,2.07
2017-09-01T14:20:18.736Z,2.40
2017-09-01T14:22:46.322Z,2.27
2017-09-01T14:25:13.964Z,16.10
2017-09-01T14:27:41.566Z,21.90
2017-09-01T14:30:09.209Z,2.43
2017-09-01T14:32:36.815Z,2.00
2017-09-01T14:35:04.465Z,2.67
2017-09-01T14:37:32.154Z,2.53
2017-09-01T14:39:59.797Z,1.93
2017-09-01T14:42:27.387Z,2.17
2017-09-01T14:44:55.135Z,2.43
2017-09-01T14:47:22.743Z,1.90
2017-09-01T14:49:50.345Z,3.90
2017-09-01T14:52:18.022Z,3.00
2017-09-01T14:54:45.629Z,3.13
2017-09-01T14:57:13.270Z,3.27
2017-09-01T14:59:40.899Z,3.47
2017-09-01T15:02:08.535Z,3.50
2017-09-01T15:04:36.119Z,3.50
2017-09-01T15:07:03.868Z,3.50
2017-09-01T15:09:31.471Z,3.80
2017-09-01T15:11:59.062Z,3.43
2017-09-01T15:14:26.700Z,4.37
2017-09-01T15:16:54.296Z,3.90
2017-09-01T15:19:21.939Z,4.60
2017-09-01T15:21:49.556Z,4.70
2017-09-01T15:24:17.183Z,4.00
2017-09-01T15:26:44.801Z,3.73
2017-09-01T15:29:12.445Z,3.90
2017-09-01T15:31:40.027Z,4.90
2017-09-01T15:34:07.671Z,3.10
2017-09-01T15:36:35.291Z,3.27
2017-09-01T15:39:02.938Z,4.60
2017-09-01T15:41:30.577Z,5.00
2017-09-01T15:43:58.243Z,5.50
2017-09-01T15:46:25.873Z,4.60
2017-09-01T15:48:53.476Z,3.83
2017-09-01T15:51:21.147Z,3.67
2017-09-01T15:53:48.740Z,3.30
2017-09-01T15:56:16.376Z,3.50
2017-09-01T15:58:43.962Z,4.33
2017-09-01T16:01:11.603Z,3.47
2017-09-01T16:03:39.291Z,4.40
2017-09-01T16:06:07.090Z,3.37
2017-09-01T16:08:34.731Z,3.73
2017-09-01T16:11:02.342Z,3.10
2017-09-01T16:13:29.971Z,3.40
2017-09-01T16:15:57.617Z,3.10
2017-09-01T16:18:25.259Z,3.03
2017-09-01T16:20:52.867Z,3.60
2017-09-01T16:23:20.511Z,3.70
2017-09-01T16:25:48.111Z,3.83
2017-09-01T16:28:15.975Z,3.27
2017-09-01T16:30:43.671Z,2.90
2017-09-01T16:33:11.326Z,3.40
2017-09-01T16:35:38.971Z,4.10
2017-09-01T16:38:06.558Z,4.00
2017-09-01T16:40:34.227Z,2.90
2017-09-01T16:43:01.840Z,3.40
2017-09-01T16:45:29.756Z,3.03
2017-09-01T16:47:57.388Z,2.93
2017-09-01T16:50:24.989Z,2.83
2017-09-01T16:52:52.642Z,2.97
2017-09-01T16:55:20.251Z,3.20
2017-09-01T16:57:47.931Z,3.40
2017-09-01T17:00:15.558Z,3.20
2017-09-01T17:02:43.211Z,3.80
2017-09-01T17:05:10.818Z,3.63
2017-09-01T17:07:38.480Z,4.47
2017-09-01T17:10:06.115Z,3.83
2017-09-01T17:12:33.716Z,4.40
2017-09-01T17:15:01.347Z,4.50
2017-09-01T17:17:28.978Z,4.47
2017-09-01T17:19:56.616Z,4.13
2017-09-01T17:22:24.235Z,4.20
2017-09-01T17:24:51.930Z,4.40
2017-09-01T17:27:19.530Z,3.60
2017-09-01T17:29:47.182Z,3.93
2017-09-01T17:32:14.819Z,4.10
2017-09-01T17:34:42.739Z,3.50
2017-09-01T17:37:10.355Z,3.77
2017-09-01T17:39:37.946Z,3.13
2017-09-01T17:42:05.596Z,3.53
2017-09-01T17:44:33.196Z,3.97
2017-09-01T17:47:00.838Z,3.20
2017-09-01T17:49:28.627Z,4.37
2017-09-01T17:51:56.284Z,3.60
2017-09-01T17:54:23.890Z,6.43
2017-09-01T17:56:51.517Z,5.40
2017-09-01T17:59:19.117Z,6.20
2017-09-01T18:01:47.151Z,6.13
2017-09-01T18:04:14.770Z,5.70
2017-09-01T18:06:42.375Z,5.10
2017-09-01T18:09:10.027Z,5.03
2017-09-01T18:11:37.627Z,4.97
2017-09-01T18:14:05.268Z,4.50
2017-09-01T18:16:32.870Z,4.50
2017-09-01T18:19:00.517Z,4.80
2017-09-01T18:21:28.130Z,5.97
2017-09-01T18:23:55.898Z,4.97
2017-09-01T18:26:23.490Z,5.33
2017-09-01T18:28:51.091Z,5.23
2017-09-01T18:31:18.734Z,5.13
2017-09-01T18:33:46.404Z,6.70
2017-09-01T18:36:14.064Z,6.20
2017-09-01T18:38:41.770Z,6.30
2017-09-01T18:41:09.431Z,4.60
2017-09-01T18:43:37.037Z,5.27
2017-09-01T18:46:04.703Z,4.90
2017-09-01T18:48:32.299Z,4.60
2017-09-01T18:51:00.660Z,6.10
2017-09-01T18:53:28.309Z,5.30
2017-09-01T18:55:55.958Z,6.20
2017-09-01T18:58:23.562Z,6.50
2017-09-01T19:00:51.194Z,6.47
2017-09-01T19:03:18.794Z,6.23
2017-09-01T19:05:46.418Z,5.83
2017-09-01T19:08:14.077Z,7.40
2017-09-01T19:10:41.682Z,6.73
2017-09-01T19:13:09.331Z,8.37
2017-09-01T19:15:36.942Z,9.50
2017-09-01T19:18:04.591Z,9.87
2017-09-01T19:20:32.219Z,9.53
2017-09-01T19:22:59.877Z,10.93
2017-09-01T19:25:27.499Z,10.17
2017-09-01T19:27:55.250Z,14.37
2017-09-01T19:30:22.846Z,11.73
2017-09-01T19:32:50.661Z,11.37
2017-09-01T19:35:18.332Z,10.10
2017-09-01T19:37:45.985Z,11.53
2017-09-01T19:40:13.595Z,9.73
2017-09-01T19:42:41.588Z,9.33
2017-09-01T19:45:09.294Z,8.90
2017-09-01T19:47:36.954Z,8.77
2017-09-01T19:50:04.627Z,8.07
2017-09-01T19:52:32.235Z,7.60
2017-09-01T19:54:59.862Z,6.40
2017-09-01T19:57:27.511Z,7.47
2017-09-01T19:59:55.369Z,7.63
2017-09-01T20:02:23.156Z,23.13
2017-09-01T20:04:50.872Z,10.40
2017-09-01T20:07:18.489Z,8.60
2017-09-01T20:09:46.132Z,9.87
2017-09-01T20:12:13.744Z,9.93
2017-09-01T20:14:41.385Z,9.10
2017-09-01T20:17:09.016Z,9.97
2017-09-01T20:19:36.652Z,9.83
2017-09-01T20:22:04.275Z,9.43
2017-09-01T20:24:31.936Z,7.83
2017-09-01T20:26:59.539Z,9.10
2017-09-01T20:29:27.203Z,15.50
2017-09-01T20:31:54.813Z,19.10
2017-09-01T20:34:22.479Z,10.53
2017-09-01T20:36:50.098Z,10.70
2017-09-01T20:39:17.783Z,10.50
2017-09-01T20:41:45.382Z,11.50
2017-09-01T20:44:12.987Z,11.00
2017-09-01T20:46:40.626Z,9.97
2017-09-01T20:49:08.295Z,11.13
2017-09-01T20:51:35.924Z,10.00
2017-09-01T20:54:03.530Z,13.03
2017-09-01T20:56:31.182Z,12.93
2017-09-01T20:58:58.836Z,13.47
2017-09-01T21:01:26.478Z,13.13
2017-09-01T21:03:54.169Z,12.70
2017-09-01T21:06:21.804Z,12.93
2017-09-01T21:08:49.463Z,11.00
2017-09-01T21:11:17.092Z,10.67
2017-09-01T21:13:44.695Z,12.93
2017-09-01T21:16:12.342Z,12.50
2017-09-01T21:18:39.940Z,9.93
2017-09-01T21:21:07.586Z,11.27
2017-09-01T21:23:35.293Z,11.50
2017-09-01T21:26:02.901Z,14.10
2017-09-01T21:28:30.548Z,13.50
2017-09-01T21:30:58.150Z,16.20
2017-09-01T21:33:25.818Z,14.10
2017-09-01T21:35:53.507Z,13.50
2017-09-01T21:38:21.201Z,15.20
2017-09-01T21:40:49.003Z,11.30
2017-09-01T21:43:16.687Z,12.93
2017-09-01T21:45:44.380Z,13.23
2017-09-01T21:48:12.036Z,12.13
2017-09-01T21:50:39.755Z,12.80
2017-09-01T21:53:07.527Z,14.00
2017-09-01T21:55:35.311Z,13.07
2017-09-01T21:58:03.008Z,13.00
2017-09-01T22:00:30.686Z,11.67
2017-09-01T22:02:58.355Z,12.17
2017-09-01T22:05:26.047Z,11.87
2017-09-01T22:07:53.739Z,11.47
2017-09-01T22:10:21.357Z,9.50
2017-09-01T22:12:49.094Z,11.40
2017-09-01T22:15:16.884Z,11.20
2017-09-01T22:17:44.751Z,11.80
2017-09-01T22:20:12.453Z,13.40
2017-09-01T22:22:40.208Z,13.57
2017-09-01T22:25:07.980Z,10.30
2017-09-01T22:27:35.618Z,12.70
2017-09-01T22:30:03.230Z,10.57
2017-09-01T22:32:30.917Z,11.40
2017-09-01T22:34:58.508Z,13.70
2017-09-01T22:37:26.163Z,13.20
2017-09-01T22:39:53.787Z,10.53
2017-09-01T22:42:21.406Z,12.50
2017-09-01T22:44:49.043Z,12.40
2017-09-01T22:47:16.656Z,14.50
2017-09-01T22:49:44.392Z,16.70
2017-09-01T22:52:11.987Z,15.40
2017-09-01T22:54:39.617Z,17.60
2017-09-01T22:57:07.223Z,19.30
2017-09-01T22:59:34.851Z,16.10
2017-09-01T23:02:02.477Z,16.27
2017-09-01T23:04:30.118Z,16.27
2017-09-01T23:06:57.736Z,16.03
2017-09-01T23:09:25.350Z,17.20
2017-09-01T23:11:52.952Z,17.33
2017-09-01T23:14:20.566Z,18.10
2017-09-01T23:16:48.166Z,18.20
2017-09-01T23:19:15.808Z,18.23
2017-09-01T23:21:43.415Z,19.30
2017-09-01T23:24:11.055Z,18.27
2017-09-01T23:26:38.761Z,19.23
2017-09-01T23:29:06.645Z,19.50
2017-09-01T23:31:34.278Z,18.73
2017-09-01T23:34:01.886Z,17.60
2017-09-01T23:36:29.531Z,18.90
2017-09-01T23:38:57.130Z,18.10
2017-09-01T23:41:24.787Z,19.00
2017-09-01T23:43:52.367Z,18.77
2017-09-01T23:46:20.030Z,19.60
2017-09-01T23:48:47.626Z,20.07
2017-09-01T23:51:15.262Z,20.50
2017-09-01T23:53:42.878Z,16.80
2017-09-01T23:56:10.522Z,19.30
2017-09-01T23:58:38.228Z,19.33
